sensor_id;sensor_type;location;lat;lon;timestamp;temperature;humidity
67249;SHT31;63247;54.300;18.592;2023-08-01T00:01:57;16.83;99.99
67249;SHT31;63247;54.300;18.592;2023-08-01T00:04:22;16.90;99.99
67249;SHT31;63247;54.300;18.592;2023-08-01T00:06:48;16.86;99.99
67249;SHT31;63247;54.300;18.592;2023-08-01T00:09:13;16.81;99.99
67249;SHT31;63247;54.300;18.592;2023-08-01T00:11:38;16.88;99.99
67249;SHT31;63247;54.300;18.592;2023-08-01T00:14:04;16.86;99.99
67249;SHT31;63247;54.300;18.592;2023-08-01T00:16:29;16.84;99.99
67249;SHT31;63247;54.300;18.592;2023-08-01T00:18:56;16.87;99.99
67249;SHT31;63247;54.300;18.592;2023-08-01T00:21:21;16.86;99.99
67249;SHT31;63247;54.300;18.592;2023-08-01T00:23:46;16.81;99.99
67249;SHT31;63247;54.300;18.592;2023-08-01T00:26:12;16.79;99.99
67249;SHT31;63247;54.300;18.592;2023-08-01T00:28:37;16.77;99.99
67249;SHT31;63247;54.300;18.592;2023-08-01T00:31:07;16.76;99.99
67249;SHT31;63247;54.300;18.592;2023-08-01T00:33:34;16.75;99.99
67249;SHT31;63247;54.300;18.592;2023-08-01T00:36:00;16.73;99.99
67249;SHT31;63247;54.300;18.592;2023-08-01T00:38:26;16.75;99.99
67249;SHT31;63247;54.300;18.592;2023-08-01T00:40:51;16.75;99.99
67249;SHT31;63247;54.300;18.592;2023-08-01T00:43:17;16.77;99.99
67249;SHT31;63247;54.300;18.592;2023-08-01T00:45:42;16.76;99.99
67249;SHT31;63247;54.300;18.592;2023-08-01T00:48:08;16.80;99.99
67249;SHT31;63247;54.300;18.592;2023-08-01T00:50:34;16.91;99.99
67249;SHT31;63247;54.300;18.592;2023-08-01T00:53:00;17.03;99.99
67249;SHT31;63247;54.300;18.592;2023-08-01T00:55:27;17.04;99.99
67249;SHT31;63247;54.300;18.592;2023-08-01T00:57:54;17.18;99.99
67249;SHT31;63247;54.300;18.592;2023-08-01T01:00:20;17.23;99.99
67249;SHT31;63247;54.300;18.592;2023-08-01T01:02:45;17.27;99.99
67249;SHT31;63247;54.300;18.592;2023-08-01T01:05:12;17.31;99.99
67249;SHT31;63247;54.300;18.592;2023-08-01T01:07:39;17.34;99.99
67249;SHT31;63247;54.300;18.592;2023-08-01T01:10:05;17.24;99.99
67249;SHT31;63247;54.300;18.592;2023-08-01T01:12:30;17.30;99.99
67249;SHT31;63247;54.300;18.592;2023-08-01T01:14:56;17.28;99.99
67249;SHT31;63247;54.300;18.592;2023-08-01T01:17:21;17.17;99.99
67249;SHT31;63247;54.300;18.592;2023-08-01T01:19:47;17.20;99.99
67249;SHT31;63247;54.300;18.592;2023-08-01T01:22:12;17.18;99.99
67249;SHT31;63247;54.300;18.592;2023-08-01T01:24:39;17.16;99.99
67249;SHT31;63247;54.300;18.592;2023-08-01T01:27:06;17.04;99.99
67249;SHT31;63247;54.300;18.592;2023-08-01T01:29:33;17.00;99.99
67249;SHT31;63247;54.300;18.592;2023-08-01T01:32:02;16.91;99.99
67249;SHT31;63247;54.300;18.592;2023-08-01T01:34:28;16.96;99.99
67249;SHT31;63247;54.300;18.592;2023-08-01T01:36:54;16.97;99.99
67249;SHT31;63247;54.300;18.592;2023-08-01T01:39:19;16.94;99.99
67249;SHT31;63247;54.300;18.592;2023-08-01T01:41:45;16.93;99.99
67249;SHT31;63247;54.300;18.592;2023-08-01T01:44:11;17.04;99.99
67249;SHT31;63247;54.300;18.592;2023-08-01T01:46:36;17.02;99.99
67249;SHT31;63247;54.300;18.592;2023-08-01T01:49:02;17.03;99.99
67249;SHT31;63247;54.300;18.592;2023-08-01T01:51:28;16.94;99.99
67249;SHT31;63247;54.300;18.592;2023-08-01T01:53:54;17.03;99.99
67249;SHT31;63247;54.300;18.592;2023-08-01T01:56:19;17.06;99.99
67249;SHT31;63247;54.300;18.592;2023-08-01T01:58:45;16.97;99.99
67249;SHT31;63247;54.300;18.592;2023-08-01T02:01:10;16.90;99.99
67249;SHT31;63247;54.300;18.592;2023-08-01T02:03:35;16.87;99.99
67249;SHT31;63247;54.300;18.592;2023-08-01T02:06:02;16.80;99.99
67249;SHT31;63247;54.300;18.592;2023-08-01T02:08:29;16.79;99.99
67249;SHT31;63247;54.300;18.592;2023-08-01T02:10:54;16.81;99.99
67249;SHT31;63247;54.300;18.592;2023-08-01T02:13:23;16.77;99.99
67249;SHT31;63247;54.300;18.592;2023-08-01T02:15:49;16.77;99.99
67249;SHT31;63247;54.300;18.592;2023-08-01T02:18:14;16.73;99.99
67249;SHT31;63247;54.300;18.592;2023-08-01T02:20:39;16.73;99.99
67249;SHT31;63247;54.300;18.592;2023-08-01T02:23:05;16.67;99.99
67249;SHT31;63247;54.300;18.592;2023-08-01T02:25:30;16.70;99.99
67249;SHT31;63247;54.300;18.592;2023-08-01T02:27:56;16.69;99.99
67249;SHT31;63247;54.300;18.592;2023-08-01T02:30:21;16.69;99.99
67249;SHT31;63247;54.300;18.592;2023-08-01T02:32:46;16.75;99.99
67249;SHT31;63247;54.300;18.592;2023-08-01T02:35:12;16.76;99.99
67249;SHT31;63247;54.300;18.592;2023-08-01T02:37:37;16.75;99.99
67249;SHT31;63247;54.300;18.592;2023-08-01T02:40:04;16.73;99.99
67249;SHT31;63247;54.300;18.592;2023-08-01T02:42:32;16.77;99.99
67249;SHT31;63247;54.300;18.592;2023-08-01T02:44:58;16.72;99.99
67249;SHT31;63247;54.300;18.592;2023-08-01T02:47:24;16.73;99.99
67249;SHT31;63247;54.300;18.592;2023-08-01T02:49:49;16.69;99.99
67249;SHT31;63247;54.300;18.592;2023-08-01T02:52:14;16.72;99.99
67249;SHT31;63247;54.300;18.592;2023-08-01T02:54:40;16.70;99.99
67249;SHT31;63247;54.300;18.592;2023-08-01T02:57:05;16.65;99.99
67249;SHT31;63247;54.300;18.592;2023-08-01T02:59:31;16.63;99.99
67249;SHT31;63247;54.300;18.592;2023-08-01T03:01:58;16.70;99.99
67249;SHT31;63247;54.300;18.592;2023-08-01T03:04:24;16.69;99.99
67249;SHT31;63247;54.300;18.592;2023-08-01T03:06:50;16.69;99.99
67249;SHT31;63247;54.300;18.592;2023-08-01T03:09:15;16.66;99.99
67249;SHT31;63247;54.300;18.592;2023-08-01T03:11:41;16.67;99.99
67249;SHT31;63247;54.300;18.592;2023-08-01T03:14:06;16.67;99.99
67249;SHT31;63247;54.300;18.592;2023-08-01T03:16:32;16.66;99.99
67249;SHT31;63247;54.300;18.592;2023-08-01T03:18:58;16.66;99.99
67249;SHT31;63247;54.300;18.592;2023-08-01T03:21:31;16.58;99.99
67249;SHT31;63247;54.300;18.592;2023-08-01T03:23:57;16.60;99.99
67249;SHT31;63247;54.300;18.592;2023-08-01T03:26:22;16.65;99.99
67249;SHT31;63247;54.300;18.592;2023-08-01T03:28:47;16.65;99.99
67249;SHT31;63247;54.300;18.592;2023-08-01T03:31:13;16.66;99.99
67249;SHT31;63247;54.300;18.592;2023-08-01T03:33:38;16.70;99.99
67249;SHT31;63247;54.300;18.592;2023-08-01T03:36:04;16.66;99.99
67249;SHT31;63247;54.300;18.592;2023-08-01T03:38:29;16.67;99.99
67249;SHT31;63247;54.300;18.592;2023-08-01T03:40:55;16.65;99.99
67249;SHT31;63247;54.300;18.592;2023-08-01T03:43:20;16.66;99.99
67249;SHT31;63247;54.300;18.592;2023-08-01T03:45:49;16.70;99.99
67249;SHT31;63247;54.300;18.592;2023-08-01T03:48:14;16.70;99.99
67249;SHT31;63247;54.300;18.592;2023-08-01T03:50:40;16.65;99.99
67249;SHT31;63247;54.300;18.592;2023-08-01T03:53:05;16.67;99.99
67249;SHT31;63247;54.300;18.592;2023-08-01T03:55:30;16.70;99.99
67249;SHT31;63247;54.300;18.592;2023-08-01T03:57:56;16.70;99.99
67249;SHT31;63247;54.300;18.592;2023-08-01T04:00:22;16.70;99.99
67249;SHT31;63247;54.300;18.592;2023-08-01T04:02:47;16.69;99.99
67249;SHT31;63247;54.300;18.592;2023-08-01T04:05:13;16.70;99.99
67249;SHT31;63247;54.300;18.592;2023-08-01T04:07:38;16.73;99.99
67249;SHT31;63247;54.300;18.592;2023-08-01T04:10:04;16.72;99.99
67249;SHT31;63247;54.300;18.592;2023-08-01T04:12:32;16.72;99.99
67249;SHT31;63247;54.300;18.592;2023-08-01T04:14:58;16.72;99.99
67249;SHT31;63247;54.300;18.592;2023-08-01T04:17:23;16.70;99.99
67249;SHT31;63247;54.300;18.592;2023-08-01T04:19:49;16.72;99.99
67249;SHT31;63247;54.300;18.592;2023-08-01T04:22:14;16.70;99.99
67249;SHT31;63247;54.300;18.592;2023-08-01T04:24:40;16.75;99.99
67249;SHT31;63247;54.300;18.592;2023-08-01T04:27:05;16.76;99.99
67249;SHT31;63247;54.300;18.592;2023-08-01T04:29:31;16.79;99.99
67249;SHT31;63247;54.300;18.592;2023-08-01T04:31:56;16.77;99.99
67249;SHT31;63247;54.300;18.592;2023-08-01T04:34:22;16.75;99.99
67249;SHT31;63247;54.300;18.592;2023-08-01T04:36:48;16.75;99.99
67249;SHT31;63247;54.300;18.592;2023-08-01T04:39:17;16.81;99.99
67249;SHT31;63247;54.300;18.592;2023-08-01T04:41:42;16.83;99.99
67249;SHT31;63247;54.300;18.592;2023-08-01T04:44:08;16.80;99.99
67249;SHT31;63247;54.300;18.592;2023-08-01T04:46:33;16.81;99.99
67249;SHT31;63247;54.300;18.592;2023-08-01T04:48:58;16.79;99.99
67249;SHT31;63247;54.300;18.592;2023-08-01T04:51:24;16.76;99.99
67249;SHT31;63247;54.300;18.592;2023-08-01T04:53:50;16.70;99.99
67249;SHT31;63247;54.300;18.592;2023-08-01T04:56:15;16.69;99.99
67249;SHT31;63247;54.300;18.592;2023-08-01T04:58:41;16.69;99.99
67249;SHT31;63247;54.300;18.592;2023-08-01T05:01:06;16.67;99.99
67249;SHT31;63247;54.300;18.592;2023-08-01T05:03:32;16.72;99.99
67249;SHT31;63247;54.300;18.592;2023-08-01T05:05:57;16.66;99.99
67249;SHT31;63247;54.300;18.592;2023-08-01T05:08:23;16.63;99.99
67249;SHT31;63247;54.300;18.592;2023-08-01T05:10:48;16.70;99.99
67249;SHT31;63247;54.300;18.592;2023-08-01T05:13:13;16.67;99.99
67249;SHT31;63247;54.300;18.592;2023-08-01T05:15:39;16.73;99.99
67249;SHT31;63247;54.300;18.592;2023-08-01T05:18:04;16.67;99.99
67249;SHT31;63247;54.300;18.592;2023-08-01T05:20:30;16.70;99.99
67249;SHT31;63247;54.300;18.592;2023-08-01T05:22:57;16.73;99.99
67249;SHT31;63247;54.300;18.592;2023-08-01T05:25:22;16.72;99.99
67249;SHT31;63247;54.300;18.592;2023-08-01T05:27:48;16.73;99.99
67249;SHT31;63247;54.300;18.592;2023-08-01T05:30:13;16.72;99.99
67249;SHT31;63247;54.300;18.592;2023-08-01T05:32:39;16.69;99.99
67249;SHT31;63247;54.300;18.592;2023-08-01T05:35:06;16.70;99.99
67249;SHT31;63247;54.300;18.592;2023-08-01T05:37:31;16.77;99.99
67249;SHT31;63247;54.300;18.592;2023-08-01T05:39:57;16.76;99.99
67249;SHT31;63247;54.300;18.592;2023-08-01T05:42:22;16.76;99.99
67249;SHT31;63247;54.300;18.592;2023-08-01T05:44:48;16.81;99.99
67249;SHT31;63247;54.300;18.592;2023-08-01T05:47:13;16.83;99.99
67249;SHT31;63247;54.300;18.592;2023-08-01T05:49:39;16.84;99.99
67249;SHT31;63247;54.300;18.592;2023-08-01T05:52:06;16.83;99.99
67249;SHT31;63247;54.300;18.592;2023-08-01T05:54:32;16.83;99.99
67249;SHT31;63247;54.300;18.592;2023-08-01T05:56:57;16.91;99.99
67249;SHT31;63247;54.300;18.592;2023-08-01T05:59:23;16.93;99.99
67249;SHT31;63247;54.300;18.592;2023-08-01T06:01:48;17.02;99.99
67249;SHT31;63247;54.300;18.592;2023-08-01T06:04:14;17.04;99.99
67249;SHT31;63247;54.300;18.592;2023-08-01T06:06:39;17.10;99.99
67249;SHT31;63247;54.300;18.592;2023-08-01T06:09:05;17.04;99.99
67249;SHT31;63247;54.300;18.592;2023-08-01T06:11:30;17.06;99.99
67249;SHT31;63247;54.300;18.592;2023-08-01T06:13:56;17.08;99.99
67249;SHT31;63247;54.300;18.592;2023-08-01T06:16:21;17.07;99.99
67249;SHT31;63247;54.300;18.592;2023-08-01T06:18:47;17.14;99.99
67249;SHT31;63247;54.300;18.592;2023-08-01T06:21:12;17.10;99.99
67249;SHT31;63247;54.300;18.592;2023-08-01T06:23:37;17.18;99.99
67249;SHT31;63247;54.300;18.592;2023-08-01T06:26:03;17.21;99.99
67249;SHT31;63247;54.300;18.592;2023-08-01T06:28:28;17.20;99.99
67249;SHT31;63247;54.300;18.592;2023-08-01T06:30:54;17.18;99.99
67249;SHT31;63247;54.300;18.592;2023-08-01T06:33:19;17.21;99.99
67249;SHT31;63247;54.300;18.592;2023-08-01T06:35:45;17.27;99.99
67249;SHT31;63247;54.300;18.592;2023-08-01T06:38:10;17.30;99.99
67249;SHT31;63247;54.300;18.592;2023-08-01T06:40:35;17.27;99.99
67249;SHT31;63247;54.300;18.592;2023-08-01T06:43:01;17.31;99.99
67249;SHT31;63247;54.300;18.592;2023-08-01T06:45:27;17.28;99.99
67249;SHT31;63247;54.300;18.592;2023-08-01T06:47:52;17.32;99.99
67249;SHT31;63247;54.300;18.592;2023-08-01T06:50:18;17.38;99.99
67249;SHT31;63247;54.300;18.592;2023-08-01T06:52:43;17.42;99.99
67249;SHT31;63247;54.300;18.592;2023-08-01T06:55:09;17.31;99.99
67249;SHT31;63247;54.300;18.592;2023-08-01T06:57:34;17.35;99.99
67249;SHT31;63247;54.300;18.592;2023-08-01T07:00:00;17.23;99.99
67249;SHT31;63247;54.300;18.592;2023-08-01T07:02:25;17.25;99.99
67249;SHT31;63247;54.300;18.592;2023-08-01T07:04:50;17.27;99.99
67249;SHT31;63247;54.300;18.592;2023-08-01T07:07:16;17.27;99.99
67249;SHT31;63247;54.300;18.592;2023-08-01T07:09:41;17.30;99.99
67249;SHT31;63247;54.300;18.592;2023-08-01T07:12:07;17.21;99.99
67249;SHT31;63247;54.300;18.592;2023-08-01T07:14:32;17.23;99.99
67249;SHT31;63247;54.300;18.592;2023-08-01T07:16:58;17.17;99.99
67249;SHT31;63247;54.300;18.592;2023-08-01T07:19:23;17.25;99.99
67249;SHT31;63247;54.300;18.592;2023-08-01T07:21:49;17.24;99.99
67249;SHT31;63247;54.300;18.592;2023-08-01T07:24:14;17.35;99.99
67249;SHT31;63247;54.300;18.592;2023-08-01T07:26:40;17.30;99.99
67249;SHT31;63247;54.300;18.592;2023-08-01T07:29:06;17.34;99.99
67249;SHT31;63247;54.300;18.592;2023-08-01T07:31:33;17.35;99.99
67249;SHT31;63247;54.300;18.592;2023-08-01T07:33:59;17.36;99.99
67249;SHT31;63247;54.300;18.592;2023-08-01T07:36:24;17.30;99.99
67249;SHT31;63247;54.300;18.592;2023-08-01T07:38:50;17.35;99.99
67249;SHT31;63247;54.300;18.592;2023-08-01T07:41:15;17.20;99.99
67249;SHT31;63247;54.300;18.592;2023-08-01T07:43:41;17.20;99.99
67249;SHT31;63247;54.300;18.592;2023-08-01T07:46:06;17.11;99.99
67249;SHT31;63247;54.300;18.592;2023-08-01T07:48:34;17.08;99.99
67249;SHT31;63247;54.300;18.592;2023-08-01T07:51:00;17.04;99.99
67249;SHT31;63247;54.300;18.592;2023-08-01T07:53:26;16.97;99.99
67249;SHT31;63247;54.300;18.592;2023-08-01T07:55:52;17.06;99.99
67249;SHT31;63247;54.300;18.592;2023-08-01T07:58:18;17.13;99.99
67249;SHT31;63247;54.300;18.592;2023-08-01T08:00:44;17.18;99.99
67249;SHT31;63247;54.300;18.592;2023-08-01T08:03:09;17.03;99.99
67249;SHT31;63247;54.300;18.592;2023-08-01T08:05:35;17.10;99.99
67249;SHT31;63247;54.300;18.592;2023-08-01T08:08:04;17.07;99.99
67249;SHT31;63247;54.300;18.592;2023-08-01T08:10:30;17.08;99.99
67249;SHT31;63247;54.300;18.592;2023-08-01T08:12:55;17.04;99.99
67249;SHT31;63247;54.300;18.592;2023-08-01T08:15:22;17.06;99.99
67249;SHT31;63247;54.300;18.592;2023-08-01T08:17:49;16.97;99.99
67249;SHT31;63247;54.300;18.592;2023-08-01T08:20:14;16.94;99.99
67249;SHT31;63247;54.300;18.592;2023-08-01T08:22:42;16.99;99.99
67249;SHT31;63247;54.300;18.592;2023-08-01T08:25:08;16.99;99.99
67249;SHT31;63247;54.300;18.592;2023-08-01T08:27:33;17.04;99.99
67249;SHT31;63247;54.300;18.592;2023-08-01T08:29:59;17.06;99.99
67249;SHT31;63247;54.300;18.592;2023-08-01T08:32:25;16.96;99.99
67249;SHT31;63247;54.300;18.592;2023-08-01T08:34:50;17.02;99.99
67249;SHT31;63247;54.300;18.592;2023-08-01T08:37:15;17.03;99.99
67249;SHT31;63247;54.300;18.592;2023-08-01T08:39:41;17.11;99.99
67249;SHT31;63247;54.300;18.592;2023-08-01T08:42:06;17.28;99.99
67249;SHT31;63247;54.300;18.592;2023-08-01T08:44:34;17.28;99.99
67249;SHT31;63247;54.300;18.592;2023-08-01T08:47:05;17.25;99.99
67249;SHT31;63247;54.300;18.592;2023-08-01T08:49:31;17.32;99.99
67249;SHT31;63247;54.300;18.592;2023-08-01T08:51:57;17.41;99.99
67249;SHT31;63247;54.300;18.592;2023-08-01T08:54:24;17.39;99.99
67249;SHT31;63247;54.300;18.592;2023-08-01T08:56:50;17.71;99.99
67249;SHT31;63247;54.300;18.592;2023-08-01T08:59:16;17.78;99.99
67249;SHT31;63247;54.300;18.592;2023-08-01T09:01:41;17.96;99.99
67249;SHT31;63247;54.300;18.592;2023-08-01T09:04:07;18.20;99.99
67249;SHT31;63247;54.300;18.592;2023-08-01T09:06:36;18.31;99.99
67249;SHT31;63247;54.300;18.592;2023-08-01T09:09:04;18.14;99.99
67249;SHT31;63247;54.300;18.592;2023-08-01T09:11:47;18.06;99.99
67249;SHT31;63247;54.300;18.592;2023-08-01T09:14:13;18.04;99.99
67249;SHT31;63247;54.300;18.592;2023-08-01T09:16:40;17.89;99.99
67249;SHT31;63247;54.300;18.592;2023-08-01T09:19:06;17.92;99.99
67249;SHT31;63247;54.300;18.592;2023-08-01T09:21:33;17.97;99.99
67249;SHT31;63247;54.300;18.592;2023-08-01T09:26:36;17.96;99.99
67249;SHT31;63247;54.300;18.592;2023-08-01T09:29:01;17.94;99.99
67249;SHT31;63247;54.300;18.592;2023-08-01T09:31:29;17.94;99.99
67249;SHT31;63247;54.300;18.592;2023-08-01T09:33:54;17.97;99.99
67249;SHT31;63247;54.300;18.592;2023-08-01T09:36:23;17.92;99.99
67249;SHT31;63247;54.300;18.592;2023-08-01T09:38:49;17.93;99.99
67249;SHT31;63247;54.300;18.592;2023-08-01T09:41:18;17.93;99.99
67249;SHT31;63247;54.300;18.592;2023-08-01T09:43:46;17.94;99.99
67249;SHT31;63247;54.300;18.592;2023-08-01T09:46:12;17.90;99.99
67249;SHT31;63247;54.300;18.592;2023-08-01T09:48:38;17.86;99.99
67249;SHT31;63247;54.300;18.592;2023-08-01T09:51:12;17.93;99.99
67249;SHT31;63247;54.300;18.592;2023-08-01T09:53:55;17.96;99.99
67249;SHT31;63247;54.300;18.592;2023-08-01T09:56:25;17.99;99.99
67249;SHT31;63247;54.300;18.592;2023-08-01T09:58:52;17.93;99.99
67249;SHT31;63247;54.300;18.592;2023-08-01T10:01:20;17.89;99.99
67249;SHT31;63247;54.300;18.592;2023-08-01T10:03:50;17.89;99.99
67249;SHT31;63247;54.300;18.592;2023-08-01T10:06:24;17.82;99.99
67249;SHT31;63247;54.300;18.592;2023-08-01T10:08:53;17.65;99.99
67249;SHT31;63247;54.300;18.592;2023-08-01T10:11:21;17.64;99.99
67249;SHT31;63247;54.300;18.592;2023-08-01T10:13:47;17.56;99.99
67249;SHT31;63247;54.300;18.592;2023-08-01T10:16:13;17.65;99.99
67249;SHT31;63247;54.300;18.592;2023-08-01T10:18:39;17.72;99.99
67249;SHT31;63247;54.300;18.592;2023-08-01T10:21:11;17.73;99.99
67249;SHT31;63247;54.300;18.592;2023-08-01T10:23:38;17.73;99.99
67249;SHT31;63247;54.300;18.592;2023-08-01T10:26:06;17.76;99.99
67249;SHT31;63247;54.300;18.592;2023-08-01T10:28:57;17.81;99.99
67249;SHT31;63247;54.300;18.592;2023-08-01T10:31:24;17.76;99.99
67249;SHT31;63247;54.300;18.592;2023-08-01T10:33:50;17.68;99.99
67249;SHT31;63247;54.300;18.592;2023-08-01T10:36:23;17.75;99.99
67249;SHT31;63247;54.300;18.592;2023-08-01T10:38:50;17.76;99.99
67249;SHT31;63247;54.300;18.592;2023-08-01T10:43:51;17.75;99.99
67249;SHT31;63247;54.300;18.592;2023-08-01T10:46:17;17.65;99.99
67249;SHT31;63247;54.300;18.592;2023-08-01T10:48:52;17.69;99.99
67249;SHT31;63247;54.300;18.592;2023-08-01T10:51:18;17.71;99.99
67249;SHT31;63247;54.300;18.592;2023-08-01T10:53:44;17.89;99.99
67249;SHT31;63247;54.300;18.592;2023-08-01T10:56:17;17.83;99.99
67249;SHT31;63247;54.300;18.592;2023-08-01T10:58:42;17.82;99.99
67249;SHT31;63247;54.300;18.592;2023-08-01T11:01:08;17.75;99.99
67249;SHT31;63247;54.300;18.592;2023-08-01T11:03:35;17.73;99.99
67249;SHT31;63247;54.300;18.592;2023-08-01T11:06:00;17.68;99.99
67249;SHT31;63247;54.300;18.592;2023-08-01T11:08:37;17.68;99.99
67249;SHT31;63247;54.300;18.592;2023-08-01T11:11:05;17.61;99.99
67249;SHT31;63247;54.300;18.592;2023-08-01T11:13:31;17.58;99.99
67249;SHT31;63247;54.300;18.592;2023-08-01T11:15:57;17.59;99.99
67249;SHT31;63247;54.300;18.592;2023-08-01T11:18:22;17.59;99.99
67249;SHT31;63247;54.300;18.592;2023-08-01T11:20:48;17.61;99.99
67249;SHT31;63247;54.300;18.592;2023-08-01T11:23:13;17.64;99.99
67249;SHT31;63247;54.300;18.592;2023-08-01T11:25:41;17.55;99.99
67249;SHT31;63247;54.300;18.592;2023-08-01T11:28:10;17.59;99.99
67249;SHT31;63247;54.300;18.592;2023-08-01T11:30:36;17.51;99.99
67249;SHT31;63247;54.300;18.592;2023-08-01T11:33:02;17.49;99.99
67249;SHT31;63247;54.300;18.592;2023-08-01T11:35:38;17.54;99.99
67249;SHT31;63247;54.300;18.592;2023-08-01T11:38:03;17.51;99.99
67249;SHT31;63247;54.300;18.592;2023-08-01T11:40:33;17.52;99.99
67249;SHT31;63247;54.300;18.592;2023-08-01T11:42:59;17.61;99.99
67249;SHT31;63247;54.300;18.592;2023-08-01T11:45:24;17.56;99.99
67249;SHT31;63247;54.300;18.592;2023-08-01T11:47:50;17.69;99.99
67249;SHT31;63247;54.300;18.592;2023-08-01T11:50:23;17.72;99.99
67249;SHT31;63247;54.300;18.592;2023-08-01T11:52:49;17.76;99.99
67249;SHT31;63247;54.300;18.592;2023-08-01T11:55:19;17.82;99.99
67249;SHT31;63247;54.300;18.592;2023-08-01T11:58:00;17.83;99.99
67249;SHT31;63247;54.300;18.592;2023-08-01T12:00:29;18.00;99.99
67249;SHT31;63247;54.300;18.592;2023-08-01T12:03:09;18.12;99.99
67249;SHT31;63247;54.300;18.592;2023-08-01T12:05:41;18.24;99.99
67249;SHT31;63247;54.300;18.592;2023-08-01T12:08:14;18.54;99.99
67249;SHT31;63247;54.300;18.592;2023-08-01T12:10:41;18.54;99.99
67249;SHT31;63247;54.300;18.592;2023-08-01T12:13:22;18.84;99.99
67249;SHT31;63247;54.300;18.592;2023-08-01T12:15:52;18.99;99.99
67249;SHT31;63247;54.300;18.592;2023-08-01T12:18:24;18.76;99.99
67249;SHT31;63247;54.300;18.592;2023-08-01T12:20:50;18.68;99.99
67249;SHT31;63247;54.300;18.592;2023-08-01T12:23:16;18.67;99.99
67249;SHT31;63247;54.300;18.592;2023-08-01T12:25:42;18.87;99.99
67249;SHT31;63247;54.300;18.592;2023-08-01T12:28:07;19.02;99.99
67249;SHT31;63247;54.300;18.592;2023-08-01T12:30:33;19.03;99.99
67249;SHT31;63247;54.300;18.592;2023-08-01T12:32:58;18.84;99.99
67249;SHT31;63247;54.300;18.592;2023-08-01T12:35:25;18.79;99.99
67249;SHT31;63247;54.300;18.592;2023-08-01T12:37:51;18.82;99.99
67249;SHT31;63247;54.300;18.592;2023-08-01T12:40:18;18.73;99.99
67249;SHT31;63247;54.300;18.592;2023-08-01T12:42:43;18.73;99.99
67249;SHT31;63247;54.300;18.592;2023-08-01T12:45:09;18.72;99.99
67249;SHT31;63247;54.300;18.592;2023-08-01T12:47:34;18.65;99.99
67249;SHT31;63247;54.300;18.592;2023-08-01T12:50:00;18.57;99.99
67249;SHT31;63247;54.300;18.592;2023-08-01T12:52:26;18.43;99.99
67249;SHT31;63247;54.300;18.592;2023-08-01T12:54:52;18.16;99.99
67249;SHT31;63247;54.300;18.592;2023-08-01T12:57:17;18.02;99.99
67249;SHT31;63247;54.300;18.592;2023-08-01T12:59:43;17.94;99.99
67249;SHT31;63247;54.300;18.592;2023-08-01T13:02:09;17.79;99.99
67249;SHT31;63247;54.300;18.592;2023-08-01T13:04:35;17.81;99.99
67249;SHT31;63247;54.300;18.592;2023-08-01T13:07:00;17.86;99.99
67249;SHT31;63247;54.300;18.592;2023-08-01T13:09:26;17.97;99.99
67249;SHT31;63247;54.300;18.592;2023-08-01T13:11:51;18.18;99.99
67249;SHT31;63247;54.300;18.592;2023-08-01T13:14:17;18.26;99.99
67249;SHT31;63247;54.300;18.592;2023-08-01T13:16:43;18.33;99.99
67249;SHT31;63247;54.300;18.592;2023-08-01T13:19:11;18.37;99.99
67249;SHT31;63247;54.300;18.592;2023-08-01T13:21:36;18.37;99.99
67249;SHT31;63247;54.300;18.592;2023-08-01T13:24:02;18.27;99.99
67249;SHT31;63247;54.300;18.592;2023-08-01T13:26:34;18.07;99.99
67249;SHT31;63247;54.300;18.592;2023-08-01T13:28:59;18.04;99.99
67249;SHT31;63247;54.300;18.592;2023-08-01T13:31:28;18.04;99.99
67249;SHT31;63247;54.300;18.592;2023-08-01T13:33:54;18.03;99.99
67249;SHT31;63247;54.300;18.592;2023-08-01T13:36:20;17.99;99.99
67249;SHT31;63247;54.300;18.592;2023-08-01T13:38:46;18.02;99.99
67249;SHT31;63247;54.300;18.592;2023-08-01T13:41:11;18.13;99.99
67249;SHT31;63247;54.300;18.592;2023-08-01T13:43:37;18.20;99.99
67249;SHT31;63247;54.300;18.592;2023-08-01T13:46:14;18.24;99.99
67249;SHT31;63247;54.300;18.592;2023-08-01T13:48:41;18.34;99.99
67249;SHT31;63247;54.300;18.592;2023-08-01T13:51:06;18.38;99.99
67249;SHT31;63247;54.300;18.592;2023-08-01T13:53:32;18.50;99.99
67249;SHT31;63247;54.300;18.592;2023-08-01T13:55:59;18.54;99.99
67249;SHT31;63247;54.300;18.592;2023-08-01T13:58:24;18.69;99.99
67249;SHT31;63247;54.300;18.592;2023-08-01T14:00:49;18.60;99.99
67249;SHT31;63247;54.300;18.592;2023-08-01T14:03:15;18.58;99.99
67249;SHT31;63247;54.300;18.592;2023-08-01T14:05:40;18.43;99.99
67249;SHT31;63247;54.300;18.592;2023-08-01T14:08:06;18.37;99.99
67249;SHT31;63247;54.300;18.592;2023-08-01T14:10:31;18.34;99.99
67249;SHT31;63247;54.300;18.592;2023-08-01T14:12:57;18.31;99.99
67249;SHT31;63247;54.300;18.592;2023-08-01T14:15:22;18.21;99.99
67249;SHT31;63247;54.300;18.592;2023-08-01T14:17:47;18.14;99.99
67249;SHT31;63247;54.300;18.592;2023-08-01T14:20:13;18.06;99.99
67249;SHT31;63247;54.300;18.592;2023-08-01T14:22:41;17.99;99.99
67249;SHT31;63247;54.300;18.592;2023-08-01T14:25:06;17.92;99.99
67249;SHT31;63247;54.300;18.592;2023-08-01T14:27:32;17.96;99.99
67249;SHT31;63247;54.300;18.592;2023-08-01T14:29:58;17.96;99.99
67249;SHT31;63247;54.300;18.592;2023-08-01T14:32:23;17.90;99.99
67249;SHT31;63247;54.300;18.592;2023-08-01T14:34:49;17.92;99.99
67249;SHT31;63247;54.300;18.592;2023-08-01T14:37:14;17.99;99.99
67249;SHT31;63247;54.300;18.592;2023-08-01T14:39:39;17.94;99.99
67249;SHT31;63247;54.300;18.592;2023-08-01T14:42:05;17.92;99.99
67249;SHT31;63247;54.300;18.592;2023-08-01T14:44:31;17.87;99.99
67249;SHT31;63247;54.300;18.592;2023-08-01T14:46:56;17.89;99.99
67249;SHT31;63247;54.300;18.592;2023-08-01T14:49:22;17.71;99.99
67249;SHT31;63247;54.300;18.592;2023-08-01T14:51:48;17.62;99.99
67249;SHT31;63247;54.300;18.592;2023-08-01T14:54:14;17.54;99.99
67249;SHT31;63247;54.300;18.592;2023-08-01T14:56:40;17.51;99.99
67249;SHT31;63247;54.300;18.592;2023-08-01T14:59:05;17.35;99.99
67249;SHT31;63247;54.300;18.592;2023-08-01T15:01:31;17.28;99.99
67249;SHT31;63247;54.300;18.592;2023-08-01T15:03:56;17.28;99.99
67249;SHT31;63247;54.300;18.592;2023-08-01T15:06:22;17.20;99.99
67249;SHT31;63247;54.300;18.592;2023-08-01T15:08:48;17.14;99.99
67249;SHT31;63247;54.300;18.592;2023-08-01T15:11:13;17.08;99.99
67249;SHT31;63247;54.300;18.592;2023-08-01T15:13:39;17.17;99.99
67249;SHT31;63247;54.300;18.592;2023-08-01T15:16:09;17.23;99.99